createdAt,value
2023-04-29T00:01:17.764Z,100317.96
2023-04-29T00:03:44.773Z,100314.92
2023-04-29T00:06:11.999Z,100314.41
2023-04-29T00:08:38.675Z,100314.14
2023-04-29T00:11:05.353Z,100314.29
2023-04-29T00:13:32.012Z,100310.60
2023-04-29T00:15:58.623Z,100307.64
2023-04-29T00:18:25.210Z,100306.08
2023-04-29T00:20:51.776Z,100303.45
2023-04-29T00:23:18.368Z,100299.55
2023-04-29T00:25:44.930Z,100298.66
2023-04-29T00:28:11.480Z,100299.48
2023-04-29T00:30:38.149Z,100298.01
2023-04-29T00:33:04.928Z,100295.77
2023-04-29T00:35:31.575Z,100292.30
2023-04-29T00:37:58.389Z,100289.34
2023-04-29T00:40:25.034Z,100290.29
2023-04-29T00:42:51.730Z,100287.44
2023-04-29T00:45:18.510Z,100284.09
2023-04-29T00:47:45.183Z,100283.48
2023-04-29T00:50:12.596Z,100281.48
2023-04-29T00:52:40.249Z,100280.11
2023-04-29T00:55:09.039Z,100282.02
2023-04-29T00:57:35.849Z,100278.80
2023-04-29T01:00:03.317Z,100279.45
2023-04-29T01:02:30.198Z,100275.39
2023-04-29T01:04:57.139Z,100276.10
2023-04-29T01:07:45.933Z,100276.05
2023-04-29T01:10:54.364Z,100276.06
2023-04-29T01:13:30.812Z,100276.30
2023-04-29T01:16:05.583Z,100277.66
2023-04-29T01:18:36.989Z,100279.42
2023-04-29T01:21:03.751Z,100278.16
2023-04-29T01:23:30.665Z,100277.16
2023-04-29T01:25:58.684Z,100280.23
2023-04-29T01:29:02.758Z,100276.55
2023-04-29T01:31:45.303Z,100275.26
2023-04-29T01:34:22.412Z,100275.88
2023-04-29T01:36:49.365Z,100275.57
2023-04-29T01:39:16.046Z,100280.09
2023-04-29T01:41:52.244Z,100279.34
2023-04-29T01:44:27.327Z,100278.20
2023-04-29T01:46:54.366Z,100277.80
2023-04-29T01:49:27.939Z,100275.41
2023-04-29T01:51:55.805Z,100279.29
2023-04-29T01:54:22.671Z,100281.02
2023-04-29T01:56:49.663Z,100281.50
2023-04-29T01:59:27.623Z,100274.71
2023-04-29T02:02:25.572Z,100269.38
2023-04-29T02:04:59.554Z,100270.88
2023-04-29T02:07:26.403Z,100270.58
2023-04-29T02:09:53.603Z,100269.70
2023-04-29T02:12:22.060Z,100267.81
2023-04-29T02:14:53.353Z,100268.61
2023-04-29T02:17:26.785Z,100268.06
2023-04-29T02:19:55.601Z,100260.48
2023-04-29T02:22:27.584Z,100261.17
2023-04-29T02:24:58.354Z,100254.56
2023-04-29T02:27:24.995Z,100259.73
2023-04-29T02:29:51.863Z,100258.92
2023-04-29T02:32:23.990Z,100258.20
2023-04-29T02:34:53.323Z,100253.16
2023-04-29T02:37:26.779Z,100253.19
2023-04-29T02:39:53.658Z,100252.25
2023-04-29T02:42:34.226Z,100254.03
2023-04-29T02:45:05.174Z,100256.80
2023-04-29T02:47:33.890Z,100255.36
2023-04-29T02:50:00.506Z,100253.20
2023-04-29T02:52:27.324Z,100249.84
2023-04-29T02:54:53.917Z,100252.92
2023-04-29T02:57:23.573Z,100249.88
2023-04-29T02:59:50.529Z,100251.77
2023-04-29T03:02:17.353Z,100249.49
2023-04-29T03:04:47.070Z,100249.08
2023-04-29T03:07:13.630Z,100245.89
2023-04-29T03:09:40.209Z,100244.58
2023-04-29T03:12:07.449Z,100243.27
2023-04-29T03:14:33.986Z,100245.00
2023-04-29T03:17:00.715Z,100247.30
2023-04-29T03:19:27.380Z,100243.73
2023-04-29T03:21:54.814Z,100241.00
2023-04-29T03:24:21.430Z,100240.34
2023-04-29T03:26:48.078Z,100241.50
2023-04-29T03:29:14.589Z,100242.41
2023-04-29T03:31:41.697Z,100244.92
2023-04-29T03:34:08.560Z,100240.73
2023-04-29T03:36:37.365Z,100240.44
2023-04-29T03:39:08.993Z,100241.35
2023-04-29T03:41:36.920Z,100238.06
2023-04-29T03:44:03.664Z,100239.70
2023-04-29T03:46:30.362Z,100240.16
2023-04-29T03:49:05.569Z,100239.77
2023-04-29T03:51:32.329Z,100242.21
2023-04-29T03:54:13.992Z,100244.91
2023-04-29T03:56:43.391Z,100240.80
2023-04-29T03:59:10.069Z,100242.27
2023-04-29T04:01:47.821Z,100239.27
2023-04-29T04:04:16.737Z,100238.80
2023-04-29T04:06:52.009Z,100240.03
2023-04-29T04:09:20.356Z,100238.11
2023-04-29T04:11:48.033Z,100236.43
2023-04-29T04:14:16.242Z,100238.26
2023-04-29T04:16:42.920Z,100236.45
2023-04-29T04:19:17.265Z,100231.59
2023-04-29T04:21:44.910Z,100234.46
2023-04-29T04:24:11.528Z,100232.57
2023-04-29T04:26:38.118Z,100229.37
2023-04-29T04:29:31.031Z,100226.73
2023-04-29T04:32:07.953Z,100226.45
2023-04-29T04:34:35.669Z,100224.42
2023-04-29T04:37:04.122Z,100230.42
2023-04-29T04:39:34.757Z,100229.77
2023-04-29T04:42:03.652Z,100231.60
2023-04-29T04:44:32.615Z,100229.52
2023-04-29T04:47:13.792Z,100226.38
2023-04-29T04:49:50.662Z,100225.84
2023-04-29T04:52:23.735Z,100225.08
2023-04-29T04:54:59.728Z,100222.17
2023-04-29T04:57:30.056Z,100219.30
2023-04-29T05:00:08.857Z,100217.25
2023-04-29T05:02:36.453Z,100217.21
2023-04-29T05:05:05.610Z,100216.89
2023-04-29T05:07:38.149Z,100215.55
2023-04-29T05:10:08.860Z,100215.51
2023-04-29T05:12:43.613Z,100218.95
2023-04-29T05:15:10.765Z,100216.93
2023-04-29T05:17:38.108Z,100218.54
2023-04-29T05:20:05.642Z,100212.30
2023-04-29T05:22:32.812Z,100213.10
2023-04-29T05:25:03.035Z,100213.61
2023-04-29T05:27:30.317Z,100215.05
2023-04-29T05:29:57.264Z,100213.63
2023-04-29T05:32:24.095Z,100210.02
2023-04-29T05:34:52.020Z,100212.15
2023-04-29T05:37:18.657Z,100212.68
2023-04-29T05:39:59.128Z,100210.94
2023-04-29T05:42:26.274Z,100204.34
2023-04-29T05:44:53.314Z,100204.14
2023-04-29T05:47:19.995Z,100203.95
2023-04-29T05:49:46.768Z,100204.19
2023-04-29T05:52:13.355Z,100202.64
2023-04-29T05:54:44.300Z,100201.34
2023-04-29T05:57:11.225Z,100204.64
2023-04-29T05:59:39.572Z,100204.88
2023-04-29T06:02:06.944Z,100210.94
2023-04-29T06:04:35.203Z,100213.55
2023-04-29T06:07:20.590Z,100206.39
2023-04-29T06:09:56.173Z,100206.50
2023-04-29T06:12:25.534Z,100208.32
2023-04-29T06:14:52.339Z,100208.77
2023-04-29T06:17:20.076Z,100210.45
2023-04-29T06:19:46.695Z,100207.39
2023-04-29T06:22:13.397Z,100213.25
2023-04-29T06:24:44.648Z,100211.45
2023-04-29T06:27:14.389Z,100210.15
2023-04-29T06:29:42.189Z,100211.17
2023-04-29T06:32:09.055Z,100208.94
2023-04-29T06:34:37.156Z,100210.80
2023-04-29T06:37:27.690Z,100216.07
2023-04-29T06:40:11.834Z,100209.23
2023-04-29T06:42:58.820Z,100209.08
2023-04-29T06:45:57.587Z,100207.80
2023-04-29T06:48:39.278Z,100206.53
2023-04-29T06:51:06.063Z,100203.50
2023-04-29T06:53:35.991Z,100203.20
2023-04-29T06:56:02.709Z,100204.25
2023-04-29T06:58:29.308Z,100202.14
2023-04-29T07:00:56.462Z,100203.31
2023-04-29T07:03:23.137Z,100201.23
2023-04-29T07:05:50.618Z,100199.29
2023-04-29T07:08:17.200Z,100199.23
2023-04-29T07:10:43.714Z,100200.36
2023-04-29T07:13:10.439Z,100200.04
2023-04-29T07:15:38.002Z,100197.55
2023-04-29T07:18:06.048Z,100190.91
2023-04-29T07:20:32.744Z,100193.55
2023-04-29T07:22:59.482Z,100194.74
2023-04-29T07:25:29.638Z,100192.14
2023-04-29T07:27:56.860Z,100192.98
2023-04-29T07:30:25.565Z,100189.14
2023-04-29T07:32:52.349Z,100194.19
2023-04-29T07:35:19.339Z,100196.90
2023-04-29T07:37:46.160Z,100193.08
2023-04-29T07:40:13.167Z,100187.14
2023-04-29T07:42:39.733Z,100190.45
2023-04-29T07:45:07.637Z,100186.20
2023-04-29T07:47:34.342Z,100196.08
2023-04-29T07:50:01.571Z,100197.48
2023-04-29T07:52:28.427Z,100197.25
2023-04-29T07:54:57.793Z,100201.44
2023-04-29T07:57:24.498Z,100193.30
2023-04-29T07:59:54.567Z,100188.73
2023-04-29T08:02:21.701Z,100197.40
2023-04-29T08:04:51.338Z,100195.11
2023-04-29T08:07:18.837Z,100194.58
2023-04-29T08:09:45.701Z,100193.98
2023-04-29T08:12:12.383Z,100190.45
2023-04-29T08:14:40.594Z,100190.59
2023-04-29T08:17:08.337Z,100193.73
2023-04-29T08:19:35.107Z,100194.02
2023-04-29T08:22:01.987Z,100194.90
2023-04-29T08:24:29.643Z,100193.48
2023-04-29T08:26:56.393Z,100192.80
2023-04-29T08:29:23.092Z,100191.26
2023-04-29T08:31:50.324Z,100190.42
2023-04-29T08:34:17.451Z,100179.27
2023-04-29T08:36:44.115Z,100183.54
2023-04-29T08:39:10.762Z,100180.63
2023-04-29T08:41:37.722Z,100177.61
2023-04-29T08:44:04.458Z,100183.79
2023-04-29T08:46:31.885Z,100182.86
2023-04-29T08:48:59.552Z,100183.29
2023-04-29T08:51:26.668Z,100172.77
2023-04-29T08:53:53.374Z,100167.36
2023-04-29T08:56:21.796Z,100173.02
2023-04-29T08:58:54.818Z,100173.54
2023-04-29T09:01:23.250Z,100165.27
2023-04-29T09:04:09.799Z,100168.86
2023-04-29T09:06:36.526Z,100175.38
2023-04-29T09:09:03.886Z,100173.45
2023-04-29T09:11:34.514Z,100170.38
2023-04-29T09:14:02.514Z,100166.80
2023-04-29T09:16:29.629Z,100171.14
2023-04-29T09:18:56.975Z,100173.27
2023-04-29T09:21:27.098Z,100171.09
2023-04-29T09:23:56.252Z,100167.94
2023-04-29T09:26:24.402Z,100176.69
2023-04-29T09:29:09.362Z,100171.54
2023-04-29T09:31:38.084Z,100171.09
2023-04-29T09:34:04.909Z,100167.55
2023-04-29T09:36:47.598Z,100163.85
2023-04-29T09:39:22.475Z,100167.88
2023-04-29T09:41:52.273Z,100161.42
2023-04-29T09:44:23.855Z,100162.49
2023-04-29T09:46:59.956Z,100166.60
2023-04-29T09:49:29.011Z,100157.14
2023-04-29T09:51:58.394Z,100141.36
2023-04-29T09:54:28.540Z,100143.80
2023-04-29T09:56:57.608Z,100144.44
2023-04-29T09:59:24.901Z,100152.56
2023-04-29T10:01:54.432Z,100152.81
2023-04-29T10:04:23.448Z,100145.59
2023-04-29T10:06:53.910Z,100141.76
2023-04-29T10:09:22.159Z,100131.45
2023-04-29T10:11:53.774Z,100140.18
2023-04-29T10:14:25.675Z,100140.94
2023-04-29T10:17:00.019Z,100138.73
2023-04-29T10:19:33.660Z,100134.95
2023-04-29T10:22:08.890Z,100132.86
2023-04-29T10:24:39.535Z,100127.13
2023-04-29T10:27:12.736Z,100125.55
2023-04-29T10:29:40.040Z,100125.54
2023-04-29T10:32:13.263Z,100121.39
2023-04-29T10:34:41.758Z,100120.71
2023-04-29T10:37:10.044Z,100116.86
2023-04-29T10:39:46.716Z,100106.77
2023-04-29T10:42:36.472Z,100109.34
2023-04-29T10:45:29.974Z,100111.58
2023-04-29T10:48:06.195Z,100103.98
2023-04-29T10:50:34.164Z,100104.52
2023-04-29T10:53:05.111Z,100105.66
2023-04-29T10:55:36.102Z,100100.55
2023-04-29T10:58:05.127Z,100100.94
2023-04-29T11:00:34.038Z,100095.55
2023-04-29T11:03:02.450Z,100093.04
2023-04-29T11:05:37.221Z,100091.91
2023-04-29T11:08:16.414Z,100093.30
2023-04-29T11:10:44.038Z,100091.92
2023-04-29T11:13:30.774Z,100089.63
2023-04-29T11:16:05.495Z,100081.67
2023-04-29T11:18:35.456Z,100081.61
2023-04-29T11:21:09.061Z,100078.02
2023-04-29T11:23:45.230Z,100079.40
2023-04-29T11:26:12.518Z,100078.05
2023-04-29T11:28:43.125Z,100081.66
2023-04-29T11:31:10.461Z,100074.06
2023-04-29T11:33:37.493Z,100074.09
2023-04-29T11:36:04.751Z,100074.04
2023-04-29T11:38:31.632Z,100073.24
2023-04-29T11:40:59.767Z,100073.35
2023-04-29T11:43:26.472Z,100071.66
2023-04-29T11:45:54.556Z,100068.77
2023-04-29T11:48:22.678Z,100061.58
2023-04-29T11:50:51.717Z,100062.00
2023-04-29T11:53:25.461Z,100068.34
2023-04-29T11:55:56.473Z,100068.96
2023-04-29T11:58:24.669Z,100060.11
2023-04-29T12:00:54.256Z,100053.38
2023-04-29T12:03:23.242Z,100059.33
2023-04-29T12:05:54.739Z,100056.63
2023-04-29T12:08:25.458Z,100044.14
2023-04-29T12:10:57.472Z,100043.73
2023-04-29T12:13:31.441Z,100041.68
2023-04-29T12:16:02.268Z,100042.95
2023-04-29T12:18:31.422Z,100045.11
2023-04-29T12:21:01.417Z,100042.44
2023-04-29T12:23:32.463Z,100038.34
2023-04-29T12:26:03.468Z,100038.61
2023-04-29T12:28:33.487Z,100033.69
2023-04-29T12:31:02.862Z,100030.29
2023-04-29T12:33:35.072Z,100024.27
2023-04-29T12:36:04.495Z,100031.58
2023-04-29T12:38:35.057Z,100027.17
2023-04-29T12:41:04.434Z,100024.25
2023-04-29T12:43:34.439Z,100022.02
2023-04-29T12:46:09.605Z,100023.33
2023-04-29T12:48:41.557Z,100019.17
2023-04-29T12:51:12.514Z,100014.74
2023-04-29T12:53:42.469Z,100020.14
2023-04-29T12:56:13.482Z,100013.00
2023-04-29T12:58:43.217Z,100016.95
2023-04-29T13:01:12.467Z,100010.10
2023-04-29T13:10:46.361Z,100001.24
2023-04-29T13:13:13.226Z,99995.63
2023-04-29T13:15:39.903Z,99994.74
2023-04-29T13:18:06.749Z,99997.73
2023-04-29T13:20:40.437Z,99998.32
2023-04-29T13:23:08.919Z,99995.33
2023-04-29T13:25:36.625Z,99993.09
2023-04-29T13:28:05.509Z,99993.61
2023-04-29T13:30:33.100Z,99990.50
2023-04-29T13:33:08.449Z,99985.39
2023-04-29T13:35:40.065Z,99985.02
2023-04-29T13:38:07.693Z,99983.09
2023-04-29T13:40:38.838Z,99980.89
2023-04-29T13:43:09.850Z,99972.93
2023-04-29T13:45:39.885Z,99977.10
2023-04-29T13:48:28.356Z,99973.30
2023-04-29T13:51:37.321Z,99977.14
2023-04-29T13:59:30.669Z,99980.23
2023-04-29T14:04:00.583Z,99975.23
2023-04-29T14:06:28.477Z,99970.73
2023-04-29T14:08:55.333Z,99971.09
2023-04-29T14:11:21.955Z,99973.00
2023-04-29T14:13:48.550Z,99974.19
2023-04-29T14:16:15.384Z,99968.13
2023-04-29T14:18:42.159Z,99967.77
2023-04-29T14:21:08.785Z,99971.45
2023-04-29T14:23:35.876Z,99967.55
2023-04-29T14:26:22.415Z,99968.38
2023-04-29T14:28:49.797Z,99965.95
2023-04-29T14:31:18.037Z,99961.06
2023-04-29T14:33:44.624Z,99964.33
2023-04-29T14:36:11.217Z,99963.94
2023-04-29T14:38:37.837Z,99964.17
2023-04-29T14:41:04.467Z,99963.61
2023-04-29T14:43:31.148Z,99960.50
2023-04-29T14:45:58.081Z,99956.77
2023-04-29T14:48:25.118Z,99952.81
2023-04-29T14:50:51.934Z,99957.97
2023-04-29T14:53:18.922Z,99953.54
2023-04-29T14:55:45.559Z,99951.00
2023-04-29T14:58:12.097Z,99951.00
2023-04-29T15:00:38.630Z,99952.02
2023-04-29T15:03:05.373Z,99955.27
2023-04-29T15:05:32.095Z,99951.94
2023-04-29T15:08:00.268Z,99953.59
2023-04-29T15:10:27.753Z,99954.23
2023-04-29T15:12:54.904Z,99954.62
2023-04-29T15:15:22.837Z,99956.99
2023-04-29T15:17:49.787Z,99954.45
2023-04-29T15:20:16.693Z,99958.23
2023-04-29T15:22:43.473Z,99956.48
2023-04-29T15:25:10.813Z,99955.98
2023-04-29T15:27:37.941Z,99952.82
2023-04-29T15:30:06.002Z,99954.23
2023-04-29T15:32:32.848Z,99953.98
2023-04-29T15:35:01.053Z,99949.55
2023-04-29T15:37:28.966Z,99950.41
2023-04-29T15:39:56.771Z,99951.85
2023-04-29T15:42:23.371Z,99951.52
2023-04-29T15:44:50.266Z,99953.66
2023-04-29T15:47:17.161Z,99955.55
2023-04-29T15:49:43.952Z,99953.17
2023-04-29T15:52:10.609Z,99955.67
2023-04-29T15:54:37.400Z,99956.61
2023-04-29T15:57:04.246Z,99956.53
2023-04-29T15:59:31.622Z,99951.23
2023-04-29T16:01:58.582Z,99949.56
2023-04-29T16:04:27.448Z,99952.78
2023-04-29T16:06:54.063Z,99950.40
2023-04-29T16:09:21.650Z,99945.80
2023-04-29T16:11:48.581Z,99944.11
2023-04-29T16:14:15.332Z,99945.53
2023-04-29T16:16:42.885Z,99947.02
2023-04-29T16:19:09.540Z,99945.02
2023-04-29T16:21:36.146Z,99946.23
2023-04-29T16:24:02.885Z,99945.65
2023-04-29T16:26:29.789Z,99947.66
2023-04-29T16:28:56.674Z,99946.36
2023-04-29T16:31:23.665Z,99947.59
2023-04-29T16:33:50.593Z,99950.65
2023-04-29T16:36:17.356Z,99949.59
2023-04-29T16:38:44.010Z,99948.23
2023-04-29T16:41:10.585Z,99946.81
2023-04-29T16:43:37.295Z,99943.02
2023-04-29T16:46:03.968Z,99947.13
2023-04-29T16:48:30.536Z,99947.98
2023-04-29T16:50:58.778Z,99949.30
2023-04-29T16:53:25.405Z,99953.04
2023-04-29T16:55:52.535Z,99956.83
2023-04-29T16:58:19.533Z,99956.91
2023-04-29T17:00:46.766Z,99957.61
2023-04-29T17:03:13.944Z,99958.79
2023-04-29T17:05:40.884Z,99957.48
2023-04-29T17:08:07.939Z,99962.64
2023-04-29T17:10:34.996Z,99961.48
2023-04-29T17:13:01.641Z,99960.70
2023-04-29T17:15:29.058Z,99963.77
2023-04-29T17:17:55.878Z,99964.14
2023-04-29T17:20:22.898Z,99965.64
2023-04-29T17:22:49.887Z,99966.56
2023-04-29T17:25:16.577Z,99966.13
2023-04-29T17:27:45.232Z,99970.64
2023-04-29T17:30:12.713Z,99971.36
2023-04-29T17:32:39.591Z,99973.36
2023-04-29T17:35:08.662Z,99972.16
2023-04-29T17:37:35.476Z,99971.47
2023-04-29T17:40:02.830Z,99969.10
2023-04-29T17:42:29.645Z,99966.12
2023-04-29T17:44:56.326Z,99963.45
2023-04-29T17:47:23.412Z,99962.55
2023-04-29T17:49:52.151Z,99964.52
2023-04-29T17:52:21.448Z,99963.77
2023-04-29T17:54:49.008Z,99968.11
2023-04-29T17:57:15.749Z,99964.80
2023-04-29T17:59:42.511Z,99968.74
2023-04-29T18:02:09.140Z,99970.39
2023-04-29T18:04:37.437Z,99974.34
2023-04-29T18:07:04.156Z,99975.44
2023-04-29T18:09:30.822Z,99973.41
2023-04-29T18:11:57.567Z,99973.82
2023-04-29T18:14:24.694Z,99974.23
2023-04-29T18:16:52.652Z,99973.65
2023-04-29T18:19:19.319Z,99977.03
2023-04-29T18:21:46.123Z,99980.84
2023-04-29T18:24:12.880Z,99982.25
2023-04-29T18:26:39.805Z,99982.48
2023-04-29T18:29:06.712Z,99983.11
2023-04-29T18:31:33.464Z,99985.16
2023-04-29T18:34:00.265Z,99986.42
2023-04-29T18:36:28.162Z,99992.66
2023-04-29T18:38:55.020Z,99992.77
2023-04-29T18:41:21.632Z,99993.02
2023-04-29T18:43:51.082Z,99995.52
2023-04-29T18:46:17.819Z,99997.58
2023-04-29T18:48:44.425Z,100002.52
2023-04-29T18:51:11.806Z,100004.09
2023-04-29T18:53:38.907Z,100005.24
2023-04-29T18:56:06.590Z,100009.30
2023-04-29T18:58:33.426Z,100010.77
2023-04-29T19:01:02.515Z,100013.73
2023-04-29T19:03:29.358Z,100015.50
2023-04-29T19:05:56.007Z,100014.92
2023-04-29T19:08:22.722Z,100014.69
2023-04-29T19:10:49.362Z,100018.03
2023-04-29T19:13:16.319Z,100016.60
2023-04-29T19:15:43.476Z,100018.54
2023-04-29T19:18:10.452Z,100021.56
2023-04-29T19:20:37.083Z,100024.13
2023-04-29T19:23:03.872Z,100021.40
2023-04-29T19:25:31.901Z,100022.52
2023-04-29T19:27:58.902Z,100024.36
2023-04-29T19:30:27.011Z,100030.35
2023-04-29T19:32:53.907Z,100041.88
2023-04-29T19:35:20.984Z,100048.67
2023-04-29T19:37:47.655Z,100041.00
2023-04-29T19:40:14.294Z,100037.04
2023-04-29T19:42:41.093Z,100034.55
2023-04-29T19:45:09.590Z,100036.80
2023-04-29T19:47:36.766Z,100038.39
2023-04-29T19:50:05.364Z,100040.88
2023-04-29T19:52:32.048Z,100042.21
2023-04-29T19:54:58.745Z,100043.14
2023-04-29T19:57:26.185Z,100040.79
2023-04-29T19:59:53.237Z,100038.29
2023-04-29T20:02:23.173Z,100038.42
2023-04-29T20:04:49.998Z,100040.17
2023-04-29T20:07:16.652Z,100038.02
2023-04-29T20:09:45.614Z,100038.59
2023-04-29T20:12:12.444Z,100037.06
2023-04-29T20:14:39.147Z,100040.41
2023-04-29T20:17:06.220Z,100040.19
2023-04-29T20:19:33.093Z,100039.59
2023-04-29T20:21:59.657Z,100041.09
2023-04-29T20:24:26.861Z,100040.64
2023-04-29T20:26:53.388Z,100043.70
2023-04-29T20:29:21.408Z,100042.50
2023-04-29T20:31:48.177Z,100042.64
2023-04-29T20:34:15.044Z,100039.58
2023-04-29T20:36:41.622Z,100039.30
2023-04-29T20:39:09.405Z,100040.30
2023-04-29T20:41:36.093Z,100041.82
2023-04-29T20:44:03.310Z,100038.89
2023-04-29T20:46:31.830Z,100036.81
2023-04-29T20:48:58.512Z,100036.21
2023-04-29T20:51:25.135Z,100030.66
2023-04-29T20:53:51.756Z,100023.25
2023-04-29T20:56:18.349Z,100023.79
2023-04-29T20:58:44.891Z,100023.67
2023-04-29T21:01:11.474Z,100027.58
2023-04-29T21:03:38.157Z,100022.96
2023-04-29T21:06:05.031Z,100024.63
2023-04-29T21:08:31.692Z,100028.54
2023-04-29T21:10:58.412Z,100025.44
2023-04-29T21:13:25.037Z,100027.23
2023-04-29T21:15:51.646Z,100026.52
2023-04-29T21:18:18.915Z,100025.33
2023-04-29T21:20:46.378Z,100025.77
2023-04-29T21:23:12.993Z,100024.19
2023-04-29T21:25:39.671Z,100022.01
2023-04-29T21:28:06.277Z,100020.98
2023-04-29T21:30:32.836Z,100022.85
2023-04-29T21:32:59.605Z,100020.11
2023-04-29T21:35:26.700Z,100018.55
2023-04-29T21:37:53.287Z,100019.08
2023-04-29T21:40:20.017Z,100018.14
2023-04-29T21:42:47.728Z,100019.87
2023-04-29T21:45:16.269Z,100024.02
2023-04-29T21:47:43.397Z,100023.33
2023-04-29T21:50:11.610Z,100022.09
2023-04-29T21:52:38.364Z,100021.14
2023-04-29T21:55:06.339Z,100021.02
2023-04-29T21:57:43.436Z,100018.42
2023-04-29T22:00:28.316Z,100017.37
2023-04-29T22:02:55.053Z,100020.78
2023-04-29T22:05:21.660Z,100023.60
2023-04-29T22:07:48.247Z,100023.14
2023-04-29T22:10:15.129Z,100020.63
2023-04-29T22:12:41.736Z,100019.91
2023-04-29T22:15:16.945Z,100020.20
2023-04-29T22:17:54.325Z,100021.06
2023-04-29T22:20:21.250Z,100016.15
2023-04-29T22:22:47.910Z,100017.07
2023-04-29T22:25:14.546Z,100018.75
2023-04-29T22:27:41.372Z,100019.43
2023-04-29T22:30:08.959Z,100019.73
2023-04-29T22:32:35.976Z,100023.33
2023-04-29T22:35:02.685Z,100019.71
2023-04-29T22:37:29.261Z,100018.03
2023-04-29T22:39:56.999Z,100017.26
2023-04-29T22:42:23.765Z,100018.83
2023-04-29T22:44:50.617Z,100015.66
2023-04-29T22:47:17.308Z,100016.20
2023-04-29T22:49:43.890Z,100017.86
2023-04-29T22:52:10.479Z,100018.20
2023-04-29T22:54:37.036Z,100018.94
2023-04-29T22:57:04.148Z,100020.09
2023-04-29T22:59:30.953Z,100022.27
2023-04-29T23:01:57.774Z,100019.65
2023-04-29T23:04:24.866Z,100018.58
2023-04-29T23:06:51.734Z,100018.08
2023-04-29T23:09:18.467Z,100013.97
2023-04-29T23:11:45.124Z,100015.14
2023-04-29T23:14:11.676Z,100014.95
2023-04-29T23:16:38.147Z,100011.40
2023-04-29T23:19:04.805Z,100012.06
2023-04-29T23:21:32.569Z,100012.13
2023-04-29T23:23:59.215Z,100016.42
2023-04-29T23:26:25.743Z,100015.32
2023-04-29T23:28:52.333Z,100012.52
2023-04-29T23:31:18.998Z,100010.20
2023-04-29T23:33:45.620Z,100012.50
2023-04-29T23:36:12.177Z,100012.20
2023-04-29T23:38:38.729Z,100013.50
2023-04-29T23:41:05.335Z,100017.38
2023-04-29T23:43:32.157Z,100016.83
2023-04-29T23:45:58.917Z,100019.54
2023-04-29T23:48:25.536Z,100018.69
2023-04-29T23:50:52.047Z,100014.56
2023-04-29T23:53:18.709Z,100015.16
2023-04-29T23:55:45.458Z,100013.58
2023-04-29T23:58:12.055Z,100009.12
